Viroqua, WI

6:12 AM CDT on September 25, 2017 (GMT -0500)
Viroqua

Weather History for KY51 - January, 2014

Change the Weather History Date:

Friday, January 24, 2014

  Actual Average (KCMY) Record (KCMY)
Temperature  
Mean Temperature 11 °F -  
Max Temperature 32 °F 26 °F 50 °F (1989)
Min Temperature -10 °F 5 °F -31 °F (2008)
Degree Days  
Heating Degree Days 54    
Moisture  
Dew Point 9 °F    
Average Humidity 76    
Maximum Humidity 100    
Minimum Humidity 63    
Precipitation  
Precipitation 0.00 in - - ()
Sea Level Pressure  
Sea Level Pressure 29.74 in    
Wind  
Wind Speed 17 mph (SW)    
Max Wind Speed 25 mph    
Max Gust Speed 31 mph    
Visibility 8 miles    
Events      
Averages and records for this station are not official NWS values.
T = Trace of Precipitation, MM = Missing Value Source: NWS Daily Summary

Daily Weather History Graph

Daily Weather History Graph

Search for Another Location

Airport or City:

Trip Planner

Search our weather history database for the weather conditions in past years. The results will help you decide how hot, cold, wet, or windy it might be!

Date:

Astronomy

Jan. 24, 2014 Rise Set
Actual Time 7:27 AM CST 5:04 PM CST
Civil Twilight 6:56 AM CST 5:35 PM CST
Nautical Twilight 6:21 AM CST 6:10 PM CST
Astronomical Twilight 5:47 AM CST 6:44 PM CST
Moon 12:52 AM CST (1/24) 11:25 AM CST (1/24)
Length of Visible Light 10h 38m
Length of Day
9h 36m
Last Quarter, 44% of the Moon is Illuminated
Jan 24
Last Quarter
Jan 30
New
Feb 6
First Quarter
Feb 14
Full
Feb 22
Last Quarter

Hourly Weather History & Observations

Time (CST) Temp. Windchill Dew Point Humidity Pressure Visibility Wind Dir Wind Speed Gust Speed Precip Events Conditions
12:15 AM -10.1 °F -28.8 °F -14.6 °F 81% 30.31 in 10.0 mi SSW 10.4 mph - N/A   Clear
12:35 AM -10.3 °F -30.0 °F -14.8 °F 81% 30.29 in 10.0 mi SSW 11.5 mph - N/A   Clear
12:55 AM -9.6 °F -29.1 °F -13.9 °F 81% 30.27 in 10.0 mi SSW 11.5 mph - N/A   Clear
1:15 AM -8.1 °F -29.0 °F -12.3 °F 82% 30.25 in 10.0 mi SSW 13.8 mph 17.3 mph N/A   Clear
1:35 AM -7.6 °F -28.3 °F -11.6 °F 83% 30.24 in 10.0 mi SSW 13.8 mph - N/A   Clear
1:55 AM -7.1 °F -26.8 °F -11.4 °F 81% 30.22 in 10.0 mi SSW 12.7 mph - N/A   Clear
2:15 AM -6.2 °F -24.8 °F -10.5 °F 82% 30.21 in 10.0 mi SSW 11.5 mph - N/A   Clear
2:35 AM -4.9 °F -27.6 °F -9.2 °F 82% 30.18 in 10.0 mi SSW 18.4 mph - N/A   Clear
2:55 AM -3.6 °F -24.7 °F -8.5 °F 80% 30.17 in 10.0 mi SSW 16.1 mph - N/A   Clear
3:15 AM -2.6 °F -23.3 °F -8.0 °F 78% 30.14 in 10.0 mi SSW 16.1 mph 21.9 mph N/A   Clear
3:35 AM -0.6 °F -22.0 °F -7.6 °F 72% 30.12 in 10.0 mi SSW 18.4 mph 25.3 mph N/A   Scattered Clouds
3:55 AM 0.3 °F -21.4 °F -7.6 °F 69% 30.09 in 10.0 mi SSW 19.6 mph 25.3 mph N/A   Mostly Cloudy
4:15 AM 1.8 °F -19.5 °F -7.1 °F 67% 30.06 in 10.0 mi SSW 19.6 mph 27.6 mph N/A   Mostly Cloudy
4:35 AM 2.8 °F -20.4 °F -6.7 °F 64% 30.04 in 10.0 mi SSW 25.3 mph 29.9 mph N/A   Mostly Cloudy
4:55 AM 2.7 °F -18.8 °F -6.7 °F 65% 30.01 in 10.0 mi SSW 20.7 mph 29.9 mph N/A   Overcast
5:15 AM 3.2 °F -18.6 °F -6.0 °F 66% 29.99 in 10.0 mi SSW 21.9 mph 31.1 mph N/A   Overcast
5:35 AM 3.6 °F -18.6 °F -5.4 °F 66% 29.96 in 7.0 mi SSW 23.0 mph 31.1 mph N/A   Overcast
5:55 AM 4.6 °F -17.1 °F -4.4 °F 66% 29.94 in 10.0 mi SSW 23.0 mph 28.8 mph N/A   Overcast
6:15 AM 5.5 °F -14.0 °F -4.0 °F 65% 29.93 in 10.0 mi SW 18.4 mph - N/A   Mostly Cloudy
6:35 AM 6.8 °F -12.4 °F -3.1 °F 64% 29.92 in 10.0 mi SW 18.4 mph - N/A   Overcast
6:55 AM 8.8 °F -10.3 °F -1.3 °F 64% 29.90 in 10.0 mi SW 19.6 mph 25.3 mph N/A   Overcast
7:15 AM 9.9 °F -9.8 °F -0.4 °F 63% 29.89 in 7.0 mi SW 21.9 mph 31.1 mph N/A   Overcast
7:35 AM 10.4 °F -9.1 °F 0.5 °F 64% 29.88 in 7.0 mi SW 21.9 mph 27.6 mph N/A   Overcast
7:55 AM 10.4 °F -9.5 °F 0.9 °F 65% 29.85 in 5.0 mi SSW 23.0 mph 27.6 mph N/A   Overcast
8:15 AM 11.3 °F -6.5 °F 0.9 °F 63% 29.85 in 10.0 mi SW 18.4 mph 25.3 mph N/A   Overcast
8:35 AM 11.7 °F -7.4 °F 2.3 °F 66% 29.83 in 4.0 mi SW 21.9 mph 29.9 mph N/A   Overcast
8:55 AM 12.2 °F -7.1 °F 2.8 °F 66% 29.82 in 3.0 mi SW 23.0 mph 28.8 mph N/A   Overcast
9:15 AM 12.7 °F -6.8 °F 3.2 °F 66% 29.81 in 7.0 mi SW 24.2 mph 27.6 mph N/A   Overcast
9:35 AM 13.1 °F -5.1 °F 3.6 °F 66% 29.80 in 7.0 mi SW 20.7 mph 26.5 mph N/A   Overcast
9:55 AM 14.0 °F -3.0 °F 3.7 °F 64% 29.80 in 10.0 mi SW 18.4 mph 24.2 mph N/A   Overcast
10:15 AM 14.7 °F -1.6 °F 4.6 °F 64% 29.79 in 10.0 mi SW 17.3 mph 23.0 mph N/A   Overcast
10:35 AM 15.4 °F -0.6 °F 5.0 °F 63% 29.77 in 10.0 mi SW 17.3 mph - N/A   Overcast
10:55 AM 16.2 °F -0.6 °F 6.1 °F 65% 29.76 in 10.0 mi SW 19.6 mph 25.3 mph N/A   Overcast
11:15 AM 16.7 °F 0.1 °F 6.4 °F 64% 29.75 in 10.0 mi SW 19.6 mph 24.2 mph N/A   Overcast
11:55 AM 18.3 °F 3.1 °F 8.2 °F 65% 29.70 in 10.0 mi SW 17.3 mph 26.5 mph N/A   Overcast
12:35 PM 19.4 °F 3.2 °F 9.9 °F 66% 29.67 in 10.0 mi SW 20.7 mph - N/A   Overcast
12:55 PM 20.3 °F 4.4 °F 10.4 °F 66% 29.64 in 10.0 mi WSW 20.7 mph 26.5 mph N/A   Overcast
1:15 PM 21.2 °F 6.8 °F 11.3 °F 66% 29.63 in 10.0 mi SW 17.3 mph 23.0 mph N/A   Overcast
1:35 PM 21.4 °F 6.6 °F 12.0 °F 67% 29.62 in 10.0 mi WSW 18.4 mph 23.0 mph N/A   Overcast
1:55 PM 21.6 °F 7.8 °F 12.6 °F 68% 29.60 in 10.0 mi SW 16.1 mph 24.2 mph N/A   Overcast
2:15 PM 21.7 °F 7.1 °F 13.1 °F 69% 29.57 in 10.0 mi SW 18.4 mph 25.3 mph N/A   Overcast
2:35 PM 22.6 °F 9.2 °F 13.8 °F 69% 29.56 in 10.0 mi SW 16.1 mph 24.2 mph N/A   Overcast
2:55 PM 23.0 °F 9.6 °F 14.2 °F 69% 29.56 in 10.0 mi SW 16.1 mph 20.7 mph N/A   Overcast
3:15 PM 23.0 °F 8.7 °F 14.9 °F 71% 29.55 in 10.0 mi SW 18.4 mph 26.5 mph N/A   Overcast
3:35 PM 23.7 °F 9.7 °F 15.6 °F 71% 29.54 in 10.0 mi WSW 18.4 mph 23.0 mph N/A   Overcast
3:55 PM 23.9 °F 9.1 °F 16.3 °F 73% 29.56 in 10.0 mi WSW 20.7 mph 28.8 mph N/A   Overcast
4:15 PM 24.4 °F 10.2 °F 16.7 °F 72% 29.54 in 10.0 mi SW 19.6 mph 25.3 mph N/A   Overcast
4:35 PM 24.8 °F 11.1 °F 17.4 °F 74% 29.53 in 10.0 mi SW 18.4 mph 23.0 mph N/A   Overcast
4:55 PM 25.5 °F 12.4 °F 17.8 °F 72% 29.52 in 10.0 mi SW 17.3 mph 25.3 mph N/A   Overcast
5:15 PM 25.7 °F 12.7 °F 18.5 °F 74% 29.51 in 10.0 mi SW 17.3 mph 23.0 mph N/A   Overcast
5:35 PM 26.4 °F 15.0 °F 19.0 °F 74% 29.50 in 10.0 mi SW 13.8 mph - N/A   Overcast
5:55 PM 27.0 °F 14.3 °F 19.9 °F 75% 29.48 in 10.0 mi SW 17.3 mph 21.9 mph N/A   Overcast
6:15 PM 27.5 °F 15.9 °F 21.2 °F 77% 29.47 in 10.0 mi SW 15.0 mph 21.9 mph N/A   Overcast
6:35 PM 27.9 °F 15.1 °F 22.5 °F 80% 29.47 in 4.0 mi WSW 18.4 mph 21.9 mph N/A   Overcast
6:55 PM 27.5 °F 14.6 °F 24.8 °F 90% 29.46 in 2.5 mi WSW 18.4 mph 24.2 mph N/A   Overcast
7:15 PM 27.9 °F 15.5 °F 27.9 °F 100% 29.45 in 1.2 mi WSW 17.3 mph - N/A   Overcast
7:35 PM 28.4 °F 16.6 °F 28.4 °F 100% 29.44 in 1.8 mi WSW 16.1 mph 23.0 mph N/A   Overcast
7:55 PM 29.1 °F 16.7 °F 29.1 °F 100% 29.44 in 2.5 mi WSW 18.4 mph 23.0 mph N/A   Overcast
8:15 PM 29.7 °F 17.4 °F 29.7 °F 100% 29.43 in 2.5 mi WSW 18.4 mph 21.9 mph N/A   Overcast
8:35 PM 30.0 °F 19.1 °F 30.0 °F 100% 29.42 in 2.5 mi WSW 15.0 mph - N/A   Overcast
8:55 PM 30.6 °F 19.0 °F 30.6 °F 100% 29.41 in 2.0 mi West 17.3 mph - N/A   Overcast
9:15 PM 31.5 °F 20.5 °F 31.5 °F 100% 29.41 in 7.0 mi West 16.1 mph 20.7 mph N/A   Overcast
9:35 PM 32.0 °F 22.5 °F 32.0 °F 100% 29.40 in 10.0 mi WNW 12.7 mph 23.0 mph N/A   Overcast
9:55 PM 32.0 °F 23.0 °F 31.6 °F 99% 29.40 in 5.0 mi NW 11.5 mph - N/A   Overcast
10:15 PM 31.8 °F 21.4 °F 30.4 °F 94% 29.39 in 5.0 mi NW 15.0 mph 24.2 mph N/A   Overcast
10:35 PM 31.6 °F 20.7 °F 28.8 °F 89% 29.39 in 10.0 mi NW 16.1 mph 23.0 mph N/A   Overcast
10:55 PM 31.5 °F 20.9 °F 27.7 °F 86% 29.40 in 10.0 mi NW 15.0 mph - N/A   Overcast
11:15 PM 31.5 °F 19.8 °F 27.1 °F 84% 29.40 in 10.0 mi NW 18.4 mph 26.5 mph N/A   Overcast
11:35 PM 31.5 °F 20.1 °F 26.6 °F 82% 29.40 in 10.0 mi NW 17.3 mph 27.6 mph N/A   Overcast
11:55 PM 31.1 °F 18.9 °F 26.2 °F 82% 29.41 in 7.0 mi NW 19.6 mph 28.8 mph N/A   Overcast